createdAt,value
2022-11-03T00:01:43.663Z,93135.22
2022-11-03T00:04:12.901Z,93129.25
2022-11-03T00:06:40.856Z,93118.94
2022-11-03T00:09:10.283Z,93118.13
2022-11-03T00:11:39.056Z,93123.75
2022-11-03T00:14:06.471Z,93122.19
2022-11-03T00:16:33.465Z,93116.72
2022-11-03T00:18:59.958Z,93114.50
2022-11-03T00:21:26.711Z,93111.13
2022-11-03T00:23:53.219Z,93109.53
2022-11-03T00:26:21.211Z,93110.72
2022-11-03T00:28:52.807Z,93106.78
2022-11-03T00:31:22.753Z,93111.59
2022-11-03T00:33:49.581Z,93095.00
2022-11-03T00:36:21.250Z,93086.59
2022-11-03T00:38:47.691Z,93078.75
2022-11-03T00:41:15.278Z,93082.38
2022-11-03T00:43:42.903Z,93078.41
2022-11-03T00:46:10.258Z,93081.66
2022-11-03T00:48:37.245Z,93080.16
2022-11-03T00:51:14.021Z,93082.91
2022-11-03T00:53:44.334Z,93080.75
2022-11-03T00:56:14.171Z,93089.75
2022-11-03T00:58:42.271Z,93090.34
2022-11-03T01:01:14.296Z,93092.91
2022-11-03T01:04:02.761Z,93086.50
2022-11-03T01:06:48.129Z,93090.72
2022-11-03T01:09:14.546Z,93086.28
2022-11-03T01:11:43.664Z,93084.91
2022-11-03T01:14:13.977Z,93084.47
2022-11-03T01:16:41.369Z,93085.25
2022-11-03T01:19:08.457Z,93072.94
2022-11-03T01:21:35.889Z,93065.34
2022-11-03T01:24:03.843Z,93072.13
2022-11-03T01:26:31.065Z,93071.13
2022-11-03T01:28:59.963Z,93068.53
2022-11-03T01:31:27.402Z,93066.59
2022-11-03T01:33:55.724Z,93068.78
2022-11-03T01:36:22.205Z,93066.59
2022-11-03T01:38:48.638Z,93067.34
2022-11-03T01:41:20.904Z,93067.94
2022-11-03T01:44:10.274Z,93060.72
2022-11-03T01:46:57.619Z,93053.34
2022-11-03T01:49:55.633Z,93051.41
2022-11-03T01:52:26.291Z,93047.25
2022-11-03T01:55:00.731Z,93045.47
2022-11-03T01:57:34.435Z,93038.88
2022-11-03T02:00:01.669Z,93038.69
2022-11-03T02:02:28.461Z,93038.09
2022-11-03T02:04:58.678Z,93040.53
2022-11-03T02:07:32.725Z,93027.75
2022-11-03T02:09:59.191Z,93030.16
2022-11-03T02:12:25.949Z,93029.94
2022-11-03T02:15:00.257Z,93016.81
2022-11-03T02:17:29.089Z,93013.81
2022-11-03T02:20:07.339Z,93019.66
2022-11-03T02:22:55.990Z,93009.28
2022-11-03T02:25:48.482Z,92997.66
2022-11-03T02:28:19.483Z,92996.31
2022-11-03T02:31:24.051Z,92983.72
2022-11-03T02:34:19.457Z,92986.53
2022-11-03T02:37:08.124Z,92979.16
2022-11-03T02:39:40.929Z,92972.56
2022-11-03T02:42:09.003Z,92972.97
2022-11-03T02:44:36.832Z,92970.94
2022-11-03T02:47:07.746Z,92957.97
2022-11-03T02:49:47.938Z,92958.78
2022-11-03T02:52:35.194Z,92953.38
2022-11-03T02:55:29.324Z,92950.19
2022-11-03T02:58:19.736Z,92949.00
2022-11-03T03:00:53.656Z,92943.22
2022-11-03T03:03:35.195Z,92933.69
2022-11-03T03:06:09.808Z,92935.06
2022-11-03T03:08:41.635Z,92925.84
2022-11-03T03:11:11.352Z,92929.06
2022-11-03T03:13:38.198Z,92926.50
2022-11-03T03:16:19.791Z,92931.09
2022-11-03T03:18:49.340Z,92924.31
2022-11-03T03:21:26.145Z,92912.34
2022-11-03T03:23:58.363Z,92920.56
2022-11-03T03:26:29.788Z,92915.53
2022-11-03T03:29:00.046Z,92914.69
2022-11-03T03:31:31.063Z,92918.09
2022-11-03T03:34:04.770Z,92914.69
2022-11-03T03:36:39.852Z,92906.31
2022-11-03T03:43:21.579Z,92901.97
2022-11-03T03:45:51.835Z,92880.84
2022-11-03T03:48:18.561Z,92878.06
2022-11-03T03:50:47.542Z,92881.06
2022-11-03T03:53:16.328Z,92873.66
2022-11-03T03:55:46.532Z,92866.44
2022-11-03T03:58:15.134Z,92868.50
2022-11-03T04:00:42.417Z,92855.41
2022-11-03T04:03:29.703Z,92862.63
2022-11-03T04:05:56.122Z,92847.50
2022-11-03T04:08:22.713Z,92849.47
2022-11-03T04:11:07.761Z,92846.88
2022-11-03T04:13:52.772Z,92843.09
2022-11-03T04:16:38.087Z,92850.44
2022-11-03T04:19:23.052Z,92843.88
2022-11-03T04:22:07.907Z,92841.53
2022-11-03T04:24:34.462Z,92838.72
2022-11-03T04:27:15.665Z,92837.09
2022-11-03T04:29:42.099Z,92837.69
2022-11-03T04:32:18.359Z,92837.91
2022-11-03T04:34:47.114Z,92837.28
2022-11-03T04:37:15.174Z,92835.13
2022-11-03T04:39:41.869Z,92827.16
2022-11-03T04:42:18.656Z,92829.16
2022-11-03T04:44:46.512Z,92828.16
2022-11-03T04:47:14.228Z,92833.50
2022-11-03T04:49:41.660Z,92824.31
2022-11-03T04:52:20.308Z,92812.22
2022-11-03T04:54:48.937Z,92811.81
2022-11-03T04:57:16.805Z,92814.38
2022-11-03T04:59:46.941Z,92814.38
2022-11-03T05:02:16.370Z,92814.63
2022-11-03T05:04:43.349Z,92801.28
2022-11-03T05:07:34.417Z,92795.75
2022-11-03T05:10:01.384Z,92790.97
2022-11-03T05:12:29.458Z,92790.78
2022-11-03T05:14:58.345Z,92787.22
2022-11-03T05:17:27.989Z,92785.16
2022-11-03T05:20:03.296Z,92778.78
2022-11-03T05:22:35.752Z,92772.94
2022-11-03T05:25:10.578Z,92765.59
2022-11-03T05:27:37.068Z,92769.00
2022-11-03T05:30:04.695Z,92762.06
2022-11-03T05:32:34.091Z,92757.66
2022-11-03T05:35:01.208Z,92756.28
2022-11-03T05:37:36.535Z,92758.69
2022-11-03T05:40:15.300Z,92758.69
2022-11-03T05:42:45.162Z,92766.91
2022-11-03T05:45:24.374Z,92759.53
2022-11-03T05:47:55.208Z,92759.53
2022-11-03T05:50:25.226Z,92752.78
2022-11-03T05:53:16.909Z,92748.19
2022-11-03T05:55:43.836Z,92737.81
2022-11-03T05:58:34.312Z,92739.81
2022-11-03T06:01:04.928Z,92735.22
2022-11-03T06:03:35.847Z,92737.19
2022-11-03T06:06:02.590Z,92730.34
2022-11-03T06:08:37.015Z,92733.13
2022-11-03T06:11:10.206Z,92736.16
2022-11-03T06:13:39.857Z,92738.34
2022-11-03T06:16:41.640Z,92726.41
2022-11-03T06:19:37.059Z,92712.59
2022-11-03T06:22:19.579Z,92718.59
2022-11-03T06:24:47.018Z,92723.34
2022-11-03T06:27:22.443Z,92721.09
2022-11-03T06:29:53.184Z,92712.53
2022-11-03T06:32:19.852Z,92713.94
2022-11-03T06:34:50.180Z,92717.88
2022-11-03T06:37:23.944Z,92703.13
2022-11-03T06:39:53.735Z,92698.91
2022-11-03T06:42:23.773Z,92705.81
2022-11-03T06:44:51.686Z,92695.59
2022-11-03T06:47:23.741Z,92696.34
2022-11-03T06:49:51.885Z,92696.50
2022-11-03T06:52:28.804Z,92694.06
2022-11-03T06:55:01.772Z,92692.41
2022-11-03T06:57:31.617Z,92686.34
2022-11-03T07:00:13.332Z,92687.94
2022-11-03T07:03:14.106Z,92685.13
2022-11-03T07:05:41.673Z,92687.81
2022-11-03T07:08:31.617Z,92682.03
2022-11-03T07:11:14.436Z,92678.38
2022-11-03T07:13:41.405Z,92675.03
2022-11-03T07:16:36.937Z,92673.16
2022-11-03T07:19:06.213Z,92676.00
2022-11-03T07:21:54.891Z,92679.91
2022-11-03T07:24:27.283Z,92667.72
2022-11-03T07:27:29.070Z,92668.00
2022-11-03T07:30:18.482Z,92660.88
2022-11-03T07:32:44.992Z,92663.38
2022-11-03T07:35:17.267Z,92656.31
2022-11-03T07:37:49.463Z,92660.38
2022-11-03T07:40:23.410Z,92661.41
2022-11-03T07:42:50.725Z,92658.84
2022-11-03T07:45:39.268Z,92658.03
2022-11-03T07:48:26.476Z,92659.03
2022-11-03T07:50:55.733Z,92650.25
2022-11-03T07:53:31.940Z,92648.41
2022-11-03T07:55:59.300Z,92648.38
2022-11-03T07:58:35.833Z,92642.72
2022-11-03T08:01:07.836Z,92642.69
2022-11-03T08:03:45.856Z,92645.81
2022-11-03T08:06:14.576Z,92647.13
2022-11-03T08:08:43.646Z,92646.84
2022-11-03T08:11:10.236Z,92643.72
2022-11-03T08:13:36.692Z,92633.78
2022-11-03T08:16:03.625Z,92627.81
2022-11-03T08:18:30.050Z,92623.97
2022-11-03T08:20:56.517Z,92614.31
2022-11-03T08:23:26.609Z,92618.47
2022-11-03T08:25:53.401Z,92615.56
2022-11-03T08:28:19.801Z,92607.72
2022-11-03T08:30:46.205Z,92607.31
2022-11-03T08:33:12.645Z,92607.75
2022-11-03T08:35:39.376Z,92606.34
2022-11-03T08:38:06.051Z,92603.59
2022-11-03T08:40:32.636Z,92602.13
2022-11-03T08:43:00.734Z,92594.91
2022-11-03T08:45:27.155Z,92596.06
2022-11-03T08:47:53.553Z,92585.94
2022-11-03T08:50:19.960Z,92594.19
2022-11-03T08:52:46.339Z,92592.97
2022-11-03T08:55:12.775Z,92591.72
2022-11-03T08:57:39.199Z,92594.91
2022-11-03T09:00:06.348Z,92588.66
2022-11-03T09:02:32.991Z,92590.53
2022-11-03T09:04:59.803Z,92596.41
2022-11-03T09:10:22.072Z,92581.31
2022-11-03T09:12:51.415Z,92582.13
2022-11-03T09:15:17.874Z,92575.63
2022-11-03T09:17:45.670Z,92569.63
2022-11-03T09:20:12.433Z,92561.56
2022-11-03T09:22:39.281Z,92565.00
2022-11-03T09:25:06.715Z,92560.31
2022-11-03T09:27:33.229Z,92556.94
2022-11-03T09:30:12.875Z,92553.53
2022-11-03T09:32:40.550Z,92553.53
2022-11-03T09:35:08.434Z,92548.28
2022-11-03T09:37:35.015Z,92545.13
2022-11-03T09:40:02.118Z,92547.47
2022-11-03T09:42:28.844Z,92539.81
2022-11-03T09:44:55.552Z,92538.38
2022-11-03T09:47:29.338Z,92534.41
2022-11-03T09:49:57.646Z,92534.41
2022-11-03T09:52:24.668Z,92525.47
2022-11-03T09:54:55.587Z,92529.13
2022-11-03T09:57:22.917Z,92516.53
2022-11-03T09:59:51.216Z,92513.31
2022-11-03T10:02:31.144Z,92524.06
2022-11-03T10:05:08.300Z,92521.97
2022-11-03T10:07:36.722Z,92516.94
2022-11-03T10:10:04.426Z,92514.84
2022-11-03T10:12:35.653Z,92515.91
2022-11-03T10:15:02.190Z,92508.50
2022-11-03T10:17:30.861Z,92508.47
2022-11-03T10:19:58.254Z,92514.50
2022-11-03T10:22:24.855Z,92504.78
2022-11-03T10:25:30.062Z,92501.03
2022-11-03T10:28:20.143Z,92495.22
2022-11-03T10:33:50.156Z,92481.59
2022-11-03T10:36:16.540Z,92480.88
2022-11-03T10:38:46.042Z,92478.00
2022-11-03T10:41:14.030Z,92471.19
2022-11-03T10:43:42.616Z,92477.00
2022-11-03T10:49:16.908Z,92455.91
2022-11-03T10:51:46.768Z,92453.28
2022-11-03T10:54:16.927Z,92452.22
2022-11-03T10:56:45.033Z,92454.84
2022-11-03T10:59:17.938Z,92444.28
2022-11-03T11:01:44.786Z,92441.63
2022-11-03T11:04:19.211Z,92434.19
2022-11-03T11:06:46.802Z,92433.09
2022-11-03T11:09:22.359Z,92436.22
2022-11-03T11:12:16.569Z,92427.31
2022-11-03T11:14:52.081Z,92410.47
2022-11-03T11:17:36.821Z,92408.34
2022-11-03T11:20:18.845Z,92414.16
2022-11-03T11:22:45.713Z,92408.66
2022-11-03T11:25:12.201Z,92411.47
2022-11-03T11:27:38.651Z,92413.34
2022-11-03T11:30:30.629Z,92406.75
2022-11-03T11:33:00.683Z,92408.84
2022-11-03T11:35:27.025Z,92400.66
2022-11-03T11:37:54.565Z,92398.00
2022-11-03T11:40:23.658Z,92394.75
2022-11-03T11:43:02.236Z,92390.16
2022-11-03T11:46:06.229Z,92390.66
2022-11-03T11:48:33.364Z,92386.84
2022-11-03T11:51:00.908Z,92379.66
2022-11-03T11:53:31.949Z,92373.50
2022-11-03T11:56:01.568Z,92366.94
2022-11-03T11:58:42.112Z,92359.09
2022-11-03T12:01:32.588Z,92353.34
2022-11-03T12:04:06.465Z,92349.91
2022-11-03T12:06:38.692Z,92337.59
2022-11-03T12:09:16.990Z,92333.41
2022-11-03T12:11:49.137Z,92330.53
2022-11-03T12:14:28.669Z,92325.59
2022-11-03T12:16:56.777Z,92315.16
2022-11-03T12:19:35.036Z,92311.31
2022-11-03T12:22:03.207Z,92304.97
2022-11-03T12:24:32.428Z,92294.66
2022-11-03T12:27:00.209Z,92285.41
2022-11-03T12:29:26.685Z,92284.91
2022-11-03T12:31:53.583Z,92273.81
2022-11-03T12:34:21.180Z,92273.22
2022-11-03T12:36:51.810Z,92266.59
2022-11-03T12:39:21.274Z,92244.97
2022-11-03T12:41:47.732Z,92236.22
2022-11-03T12:44:14.174Z,92235.66
2022-11-03T12:46:40.647Z,92225.63
2022-11-03T12:49:07.082Z,92233.81
2022-11-03T12:51:33.521Z,92225.13
2022-11-03T12:53:59.941Z,92220.34
2022-11-03T12:56:26.420Z,92215.88
2022-11-03T12:58:52.893Z,92209.31
2022-11-03T13:01:19.433Z,92202.84
2022-11-03T13:03:46.659Z,92209.47
2022-11-03T13:06:14.683Z,92201.09
2022-11-03T13:08:41.222Z,92192.78
2022-11-03T13:11:26.123Z,92185.50
2022-11-03T13:13:52.999Z,92188.22
2022-11-03T13:16:19.977Z,92190.34
2022-11-03T13:18:46.437Z,92191.91
2022-11-03T13:21:13.424Z,92182.72
2022-11-03T13:23:40.741Z,92171.66
2022-11-03T13:26:07.215Z,92163.47
2022-11-03T13:28:33.681Z,92168.38
2022-11-03T13:31:00.128Z,92154.38
2022-11-03T13:33:26.525Z,92157.50
2022-11-03T13:35:52.983Z,92161.69
2022-11-03T13:38:19.446Z,92147.53
2022-11-03T13:41:07.090Z,92140.22
2022-11-03T13:43:32.234Z,92130.75
2022-11-03T13:46:02.151Z,92132.03
2022-11-03T13:51:17.589Z,92113.09
2022-11-03T13:56:30.636Z,92105.78
2022-11-03T14:01:43.976Z,92121.69
2022-11-03T14:06:57.169Z,92110.97
2022-11-03T14:09:38.871Z,92105.72
2022-11-03T14:12:24.017Z,92087.00
2022-11-03T14:14:50.484Z,92072.78
2022-11-03T14:17:16.910Z,92077.28
2022-11-03T14:19:48.723Z,92083.28
2022-11-03T14:22:18.437Z,92070.84
2022-11-03T14:24:44.920Z,92066.56
2022-11-03T14:27:11.386Z,92060.31
2022-11-03T14:29:37.897Z,92065.81
2022-11-03T14:32:04.765Z,92077.69
2022-11-03T14:34:31.289Z,92070.22
2022-11-03T14:36:57.786Z,92065.19
2022-11-03T14:39:24.272Z,92058.34
2022-11-03T14:42:05.613Z,92060.19
2022-11-03T14:44:34.139Z,92056.94
2022-11-03T14:47:01.970Z,92050.91
2022-11-03T14:49:29.883Z,92040.66
2022-11-03T14:52:02.364Z,92041.50
2022-11-03T14:54:30.889Z,92026.56
2022-11-03T14:56:57.876Z,92021.59
2022-11-03T14:59:24.633Z,92017.91
2022-11-03T15:01:52.011Z,92017.69
2022-11-03T15:04:18.921Z,92015.63
2022-11-03T15:06:45.738Z,92020.31
2022-11-03T15:09:15.595Z,92017.19
2022-11-03T15:11:43.187Z,92005.94
2022-11-03T15:14:10.337Z,92004.19
2022-11-03T15:16:37.629Z,91999.84
2022-11-03T15:19:05.168Z,91996.50
2022-11-03T15:21:31.901Z,92001.28
2022-11-03T15:26:45.023Z,91990.16
2022-11-03T15:29:11.490Z,91980.56
2022-11-03T15:31:39.157Z,91977.19
2022-11-03T15:34:08.664Z,91966.59
2022-11-03T15:36:35.685Z,91957.78
2022-11-03T15:39:02.271Z,91951.03
2022-11-03T15:41:28.744Z,91953.75
2022-11-03T15:43:55.253Z,91947.00
2022-11-03T15:46:21.684Z,91943.16
2022-11-03T15:48:49.260Z,91935.09
2022-11-03T15:51:15.878Z,91942.47
2022-11-03T15:53:43.755Z,91937.50
2022-11-03T15:56:10.330Z,91937.00
2022-11-03T15:58:37.543Z,91923.69
2022-11-03T16:01:05.145Z,91914.31
2022-11-03T16:03:32.108Z,91924.59
2022-11-03T16:05:59.154Z,91928.50
2022-11-03T16:08:25.750Z,91936.16
2022-11-03T16:10:57.506Z,91929.16
2022-11-03T16:13:25.061Z,91925.53
2022-11-03T16:15:51.818Z,91931.53
2022-11-03T16:18:18.482Z,91928.66
2022-11-03T16:20:44.978Z,91933.41
2022-11-03T16:23:11.485Z,91931.28
2022-11-03T16:25:38.054Z,91930.47
2022-11-03T16:28:04.864Z,91929.22
2022-11-03T16:30:31.776Z,91927.28
2022-11-03T16:32:58.214Z,91924.13
2022-11-03T16:35:24.790Z,91920.47
2022-11-03T16:37:51.272Z,91923.03
2022-11-03T16:40:19.688Z,91930.09
2022-11-03T16:42:47.449Z,91924.84
2022-11-03T16:45:22.306Z,91917.22
2022-11-03T16:47:50.328Z,91903.91
2022-11-03T16:50:17.835Z,91904.19
2022-11-03T16:52:45.698Z,91895.00
2022-11-03T16:55:12.735Z,91891.31
2022-11-03T16:57:39.454Z,91890.53
2022-11-03T17:00:08.883Z,91884.78
2022-11-03T17:02:35.651Z,91884.78
2022-11-03T17:05:02.168Z,91883.44
2022-11-03T17:07:28.864Z,91874.28
2022-11-03T17:09:55.335Z,91877.94
2022-11-03T17:12:21.835Z,91875.63
2022-11-03T17:14:51.331Z,91866.75
2022-11-03T17:17:20.762Z,91859.66
2022-11-03T17:19:47.270Z,91852.56
2022-11-03T17:22:13.946Z,91857.25
2022-11-03T17:24:40.382Z,91867.75
2022-11-03T17:27:14.426Z,91858.03
2022-11-03T17:29:44.917Z,91863.50
2022-11-03T17:32:21.271Z,91871.31
2022-11-03T17:34:47.628Z,91866.81
2022-11-03T17:37:14.103Z,91857.31
2022-11-03T17:39:41.394Z,91857.25
2022-11-03T17:42:19.605Z,91864.28
2022-11-03T17:44:48.433Z,91860.81
2022-11-03T17:47:19.123Z,91864.44
2022-11-03T17:49:46.841Z,91864.94
2022-11-03T17:52:27.812Z,91862.09
2022-11-03T17:54:57.018Z,91855.00
2022-11-03T17:57:23.619Z,91854.22
2022-11-03T17:59:52.293Z,91846.84
2022-11-03T18:02:21.949Z,91850.97
2022-11-03T18:04:49.469Z,91846.28
2022-11-03T18:07:28.768Z,91847.78
2022-11-03T18:09:56.129Z,91848.84
2022-11-03T18:12:44.715Z,91843.09
2022-11-03T18:15:15.746Z,91846.06
2022-11-03T18:17:42.230Z,91850.47
2022-11-03T18:20:21.782Z,91844.09
2022-11-03T18:22:48.273Z,91835.78
2022-11-03T18:25:16.986Z,91823.72
2022-11-03T18:27:44.204Z,91816.91
2022-11-03T18:30:12.599Z,91806.63
2022-11-03T18:32:45.231Z,91789.53
2022-11-03T18:35:22.570Z,91794.78
2022-11-03T18:37:49.946Z,91779.31
2022-11-03T18:40:16.680Z,91775.41
2022-11-03T18:42:43.118Z,91775.34
2022-11-03T18:45:15.261Z,91749.72
2022-11-03T18:47:42.490Z,91742.63
2022-11-03T18:50:14.339Z,91739.16
2022-11-03T18:52:43.211Z,91736.13
2022-11-03T18:55:13.712Z,91744.06
2022-11-03T18:57:40.811Z,91733.56
2022-11-03T19:00:16.721Z,91728.38
2022-11-03T19:02:43.219Z,91738.09
2022-11-03T19:05:13.718Z,91734.47
2022-11-03T19:07:41.941Z,91727.66
2022-11-03T19:10:12.916Z,91729.03
2022-11-03T19:12:43.137Z,91724.34
2022-11-03T19:15:17.694Z,91708.09
2022-11-03T19:17:44.210Z,91700.22
2022-11-03T19:20:14.624Z,91698.16
2022-11-03T19:22:41.141Z,91705.03
2022-11-03T19:25:08.178Z,91706.66
2022-11-03T19:27:38.290Z,91699.88
2022-11-03T19:30:05.687Z,91699.06
2022-11-03T19:32:41.138Z,91702.97
2022-11-03T19:35:17.423Z,91701.69
2022-11-03T19:37:44.148Z,91693.56
2022-11-03T19:40:16.833Z,91697.81
2022-11-03T19:42:43.462Z,91694.84
2022-11-03T19:45:15.944Z,91699.53
2022-11-03T19:50:36.414Z,91707.25
2022-11-03T19:53:07.164Z,91710.06
2022-11-03T19:55:36.899Z,91697.16
2022-11-03T19:58:16.502Z,91701.28
2022-11-03T20:00:44.327Z,91712.84
2022-11-03T20:03:11.440Z,91707.31
2022-11-03T20:05:39.444Z,91703.41
2022-11-03T20:08:11.589Z,91703.63
2022-11-03T20:10:38.672Z,91719.16
2022-11-03T20:13:05.559Z,91690.59
2022-11-03T20:15:32.296Z,91689.59
2022-11-03T20:17:58.753Z,91690.50
2022-11-03T20:20:30.584Z,91680.03
2022-11-03T20:22:59.696Z,91679.94
2022-11-03T20:25:29.345Z,91680.22
2022-11-03T20:27:57.601Z,91679.38
2022-11-03T20:30:26.757Z,91689.94
2022-11-03T20:32:53.328Z,91685.75
2022-11-03T20:35:24.370Z,91682.34
2022-11-03T20:37:56.563Z,91688.56
2022-11-03T20:40:25.876Z,91700.63
2022-11-03T20:42:58.073Z,91673.13
2022-11-03T20:45:25.369Z,91685.69
2022-11-03T20:47:52.514Z,91685.69
2022-11-03T20:50:20.386Z,91694.84
2022-11-03T20:52:48.056Z,91700.84
2022-11-03T20:55:23.287Z,91706.09
2022-11-03T20:57:52.267Z,91719.28
2022-11-03T21:00:24.356Z,91724.09
2022-11-03T21:02:51.729Z,91737.72
2022-11-03T21:05:23.808Z,91769.53
2022-11-03T21:07:51.236Z,91775.78
2022-11-03T21:10:20.922Z,91779.59
2022-11-03T21:12:48.037Z,91785.38
2022-11-03T21:15:44.614Z,91780.38
2022-11-03T21:18:43.016Z,91777.81
2022-11-03T21:21:11.251Z,91787.22
2022-11-03T21:23:38.430Z,91793.03
2022-11-03T21:26:05.546Z,91800.34
2022-11-03T21:28:32.005Z,91809.28
2022-11-03T21:30:58.782Z,91804.59
2022-11-03T21:33:25.237Z,91803.31
2022-11-03T21:35:52.179Z,91822.72
2022-11-03T21:38:19.140Z,91821.66
2022-11-03T21:40:56.103Z,91850.31
2022-11-03T21:43:41.521Z,91846.69
2022-11-03T21:46:10.939Z,91856.81
2022-11-03T21:48:57.266Z,91855.19
2022-11-03T21:51:24.587Z,91860.09
2022-11-03T21:53:51.372Z,91862.72
2022-11-03T21:56:17.804Z,91869.56
2022-11-03T21:58:44.677Z,91868.81
2022-11-03T22:01:11.239Z,91853.31
2022-11-03T22:03:39.277Z,91867.69
2022-11-03T22:06:08.573Z,91879.28
2022-11-03T22:08:35.653Z,91877.53
2022-11-03T22:11:21.476Z,91880.63
2022-11-03T22:13:58.646Z,91856.75
2022-11-03T22:16:38.192Z,91864.63
2022-11-03T22:19:44.413Z,91877.50
2022-11-03T22:22:31.814Z,91863.00
2022-11-03T22:25:17.167Z,91879.03
2022-11-03T22:27:44.425Z,91890.63
2022-11-03T22:30:30.045Z,91875.94
2022-11-03T22:32:57.929Z,91864.41
2022-11-03T22:35:43.775Z,91869.66
2022-11-03T22:38:14.089Z,91872.84
2022-11-03T22:41:00.375Z,91875.69
2022-11-03T22:43:46.414Z,91873.28
2022-11-03T22:46:15.634Z,91890.06
2022-11-03T22:48:42.178Z,91910.72
2022-11-03T22:51:14.586Z,91914.59
2022-11-03T22:54:00.850Z,91904.94
2022-11-03T22:56:29.545Z,91916.97
2022-11-03T22:58:56.393Z,91901.28
2022-11-03T23:01:26.641Z,91903.13
2022-11-03T23:03:53.928Z,91871.69
2022-11-03T23:06:22.816Z,91901.81
2022-11-03T23:08:50.615Z,91906.25
2022-11-03T23:11:19.786Z,91910.97
2022-11-03T23:13:51.573Z,91907.38
2022-11-03T23:16:20.687Z,91906.97
2022-11-03T23:19:06.205Z,91930.22
2022-11-03T23:21:34.281Z,91908.00
2022-11-03T23:24:19.780Z,91895.97
2022-11-03T23:26:46.421Z,91894.44
2022-11-03T23:29:14.280Z,91896.50
2022-11-03T23:31:42.300Z,91901.50
2022-11-03T23:34:09.798Z,91909.66
2022-11-03T23:36:36.403Z,91910.94
2022-11-03T23:39:04.021Z,91923.50
2022-11-03T23:41:31.032Z,91910.97
2022-11-03T23:43:58.175Z,91918.28
2022-11-03T23:46:45.944Z,91929.56
2022-11-03T23:49:13.452Z,91926.69
2022-11-03T23:51:40.451Z,91930.63
2022-11-03T23:54:08.914Z,91923.75
2022-11-03T23:57:04.520Z,91925.63
2022-11-03T23:59:32.574Z,91928.53
